sensor_id;sensor_type;location;lat;lon;timestamp;pressure;altitude;pressure_sealevel;temperature;humidity
59103;BME280;43999;51.660;5.616;2023-03-04T00:01:25;102421.09;;;5.10;100.00
59103;BME280;43999;51.660;5.616;2023-03-04T00:04:02;102416.75;;;5.11;100.00
59103;BME280;43999;51.660;5.616;2023-03-04T00:06:30;102413.28;;;5.16;100.00
59103;BME280;43999;51.660;5.616;2023-03-04T00:08:58;102406.34;;;5.12;100.00
59103;BME280;43999;51.660;5.616;2023-03-04T00:11:34;102411.56;;;5.12;100.00
59103;BME280;43999;51.660;5.616;2023-03-04T00:14:10;102411.53;;;5.17;100.00
59103;BME280;43999;51.660;5.616;2023-03-04T00:16:38;102412.44;;;5.13;100.00
59103;BME280;43999;51.660;5.616;2023-03-04T00:19:09;102417.63;;;5.13;100.00
59103;BME280;43999;51.660;5.616;2023-03-04T00:21:37;102408.13;;;5.09;100.00
59103;BME280;43999;51.660;5.616;2023-03-04T00:24:05;102408.97;;;5.08;100.00
59103;BME280;43999;51.660;5.616;2023-03-04T00:26:33;102408.13;;;5.06;100.00
59103;BME280;43999;51.660;5.616;2023-03-04T00:29:00;102412.47;;;5.05;100.00
59103;BME280;43999;51.660;5.616;2023-03-04T00:31:29;102411.56;;;5.09;100.00
59103;BME280;43999;51.660;5.616;2023-03-04T00:33:57;102412.47;;;5.10;100.00
59103;BME280;43999;51.660;5.616;2023-03-04T00:36:24;102404.69;;;5.07;100.00
59103;BME280;43999;51.660;5.616;2023-03-04T00:38:53;102408.13;;;5.06;100.00
59103;BME280;43999;51.660;5.616;2023-03-04T00:41:20;102402.94;;;5.06;100.00
59103;BME280;43999;51.660;5.616;2023-03-04T00:43:48;102399.47;;;5.11;100.00
59103;BME280;43999;51.660;5.616;2023-03-04T00:46:16;102394.25;;;5.13;100.00
59103;BME280;43999;51.660;5.616;2023-03-04T00:48:43;102408.09;;;5.13;100.00
59103;BME280;43999;51.660;5.616;2023-03-04T00:51:11;102402.03;;;5.14;100.00
59103;BME280;43999;51.660;5.616;2023-03-04T00:53:43;102405.50;;;5.10;100.00
59103;BME280;43999;51.660;5.616;2023-03-04T00:56:10;102408.97;;;5.08;100.00
59103;BME280;43999;51.660;5.616;2023-03-04T00:58:38;102414.19;;;5.08;100.00
59103;BME280;43999;51.660;5.616;2023-03-04T01:01:06;102409.88;;;5.07;100.00
59103;BME280;43999;51.660;5.616;2023-03-04T01:03:34;102404.69;;;5.03;100.00
59103;BME280;43999;51.660;5.616;2023-03-04T01:06:02;102415.09;;;5.03;100.00
59103;BME280;43999;51.660;5.616;2023-03-04T01:08:29;102415.94;;;5.02;100.00
59103;BME280;43999;51.660;5.616;2023-03-04T01:10:58;102413.34;;;5.04;100.00
59103;BME280;43999;51.660;5.616;2023-03-04T01:13:25;102420.28;;;5.05;100.00
59103;BME280;43999;51.660;5.616;2023-03-04T01:15:52;102408.19;;;4.98;100.00
59103;BME280;43999;51.660;5.616;2023-03-04T01:18:21;102408.16;;;4.99;100.00
59103;BME280;43999;51.660;5.616;2023-03-04T01:20:49;102407.31;;;4.97;100.00
59103;BME280;43999;51.660;5.616;2023-03-04T01:23:17;102410.78;;;4.95;100.00
59103;BME280;43999;51.660;5.616;2023-03-04T01:25:45;102406.47;;;4.94;100.00
59103;BME280;43999;51.660;5.616;2023-03-04T01:28:13;102415.13;;;4.96;100.00
59103;BME280;43999;51.660;5.616;2023-03-04T01:30:40;102409.03;;;4.97;100.00
59103;BME280;43999;51.660;5.616;2023-03-04T01:33:10;102406.47;;;4.94;100.00
59103;BME280;43999;51.660;5.616;2023-03-04T01:35:37;102403.84;;;4.95;100.00
59103;BME280;43999;51.660;5.616;2023-03-04T01:38:04;102396.94;;;4.96;100.00
59103;BME280;43999;51.660;5.616;2023-03-04T01:40:33;102396.06;;;4.95;100.00
59103;BME280;43999;51.660;5.616;2023-03-04T01:43:00;102401.25;;;4.95;100.00
59103;BME280;43999;51.660;5.616;2023-03-04T01:45:27;102394.34;;;4.97;100.00
59103;BME280;43999;51.660;5.616;2023-03-04T01:47:56;102384.81;;;4.96;100.00
59103;BME280;43999;51.660;5.616;2023-03-04T01:50:30;102389.16;;;4.97;100.00
59103;BME280;43999;51.660;5.616;2023-03-04T01:52:58;102394.34;;;4.96;100.00
59103;BME280;43999;51.660;5.616;2023-03-04T01:55:27;102374.44;;;4.95;100.00
59103;BME280;43999;51.660;5.616;2023-03-04T01:57:54;102377.88;;;4.97;100.00
59103;BME280;43999;51.660;5.616;2023-03-04T02:00:31;102364.91;;;4.94;100.00
59103;BME280;43999;51.660;5.616;2023-03-04T02:03:10;102372.66;;;4.97;100.00
59103;BME280;43999;51.660;5.616;2023-03-04T02:05:44;102359.69;;;4.95;100.00
59103;BME280;43999;51.660;5.616;2023-03-04T02:08:17;102366.66;;;4.93;100.00
59103;BME280;43999;51.660;5.616;2023-03-04T02:10:45;102359.69;;;4.94;100.00
59103;BME280;43999;51.660;5.616;2023-03-04T02:13:14;102366.63;;;4.96;100.00
59103;BME280;43999;51.660;5.616;2023-03-04T02:15:44;102357.09;;;4.95;100.00
59103;BME280;43999;51.660;5.616;2023-03-04T02:18:19;102352.78;;;4.94;100.00
59103;BME280;43999;51.660;5.616;2023-03-04T02:26:29;102354.47;;;5.01;100.00
59103;BME280;43999;51.660;5.616;2023-03-04T02:28:59;102353.63;;;4.96;100.00
59103;BME280;43999;51.660;5.616;2023-03-04T02:31:41;102351.91;;;4.94;100.00
59103;BME280;43999;51.660;5.616;2023-03-04T02:36:43;102345.03;;;4.91;100.00
59103;BME280;43999;51.660;5.616;2023-03-04T02:41:51;102346.75;;;4.86;100.00
59103;BME280;43999;51.660;5.616;2023-03-04T02:44:23;102339.00;;;4.80;100.00
59103;BME280;43999;51.660;5.616;2023-03-04T02:46:52;102339.91;;;4.77;100.00
59103;BME280;43999;51.660;5.616;2023-03-04T02:49:20;102338.13;;;4.81;100.00
59103;BME280;43999;51.660;5.616;2023-03-04T02:51:57;102338.13;;;4.84;100.00
59103;BME280;43999;51.660;5.616;2023-03-04T02:54:26;102336.41;;;4.81;100.00
59103;BME280;43999;51.660;5.616;2023-03-04T02:56:56;102342.47;;;4.82;100.00
59103;BME280;43999;51.660;5.616;2023-03-04T02:59:29;102340.72;;;4.85;100.00
59103;BME280;43999;51.660;5.616;2023-03-04T03:02:01;102335.50;;;4.87;100.00
59103;BME280;43999;51.660;5.616;2023-03-04T03:04:28;102331.19;;;4.83;100.00
59103;BME280;43999;51.660;5.616;2023-03-04T03:06:57;102326.03;;;4.77;100.00
59103;BME280;43999;51.660;5.616;2023-03-04T03:09:26;102326.91;;;4.79;100.00
59103;BME280;43999;51.660;5.616;2023-03-04T03:11:55;102333.78;;;4.84;100.00
59103;BME280;43999;51.660;5.616;2023-03-04T03:14:22;102332.94;;;4.84;100.00
59103;BME280;43999;51.660;5.616;2023-03-04T03:16:52;102324.31;;;4.79;100.00
59103;BME280;43999;51.660;5.616;2023-03-04T03:19:20;102319.13;;;4.77;100.00
59103;BME280;43999;51.660;5.616;2023-03-04T03:21:47;102313.06;;;4.77;100.00
59103;BME280;43999;51.660;5.616;2023-03-04T03:24:15;102315.63;;;4.78;100.00
59103;BME280;43999;51.660;5.616;2023-03-04T03:26:43;102312.22;;;4.75;100.00
59103;BME280;43999;51.660;5.616;2023-03-04T03:29:11;102330.38;;;4.76;100.00
59103;BME280;43999;51.660;5.616;2023-03-04T03:31:39;102312.22;;;4.73;100.00
59103;BME280;43999;51.660;5.616;2023-03-04T03:34:07;102314.81;;;4.72;100.00
59103;BME280;43999;51.660;5.616;2023-03-04T03:36:34;102315.69;;;4.71;100.00
59103;BME280;43999;51.660;5.616;2023-03-04T03:39:02;102309.66;;;4.69;100.00
59103;BME280;43999;51.660;5.616;2023-03-04T03:41:29;102316.56;;;4.70;100.00
59103;BME280;43999;51.660;5.616;2023-03-04T03:43:58;102314.81;;;4.70;100.00
59103;BME280;43999;51.660;5.616;2023-03-04T03:46:25;102311.38;;;4.71;100.00
59103;BME280;43999;51.660;5.616;2023-03-04T03:48:53;102307.88;;;4.72;100.00
59103;BME280;43999;51.660;5.616;2023-03-04T03:51:20;102313.09;;;4.71;100.00
59103;BME280;43999;51.660;5.616;2023-03-04T03:53:47;102305.28;;;4.74;100.00
59103;BME280;43999;51.660;5.616;2023-03-04T03:56:14;102304.44;;;4.73;100.00
59103;BME280;43999;51.660;5.616;2023-03-04T03:58:42;102307.03;;;4.73;100.00
59103;BME280;43999;51.660;5.616;2023-03-04T04:01:09;102308.75;;;4.74;100.00
59103;BME280;43999;51.660;5.616;2023-03-04T04:03:36;102308.75;;;4.76;100.00
59103;BME280;43999;51.660;5.616;2023-03-04T04:06:06;102304.41;;;4.75;100.00
59103;BME280;43999;51.660;5.616;2023-03-04T04:08:33;102310.47;;;4.75;100.00
59103;BME280;43999;51.660;5.616;2023-03-04T04:11:02;102310.47;;;4.75;100.00
59103;BME280;43999;51.660;5.616;2023-03-04T04:13:29;102311.34;;;4.76;100.00
59103;BME280;43999;51.660;5.616;2023-03-04T04:15:56;102316.53;;;4.79;100.00
59103;BME280;43999;51.660;5.616;2023-03-04T04:18:24;102318.22;;;4.83;100.00
59103;BME280;43999;51.660;5.616;2023-03-04T04:20:53;102306.16;;;4.77;100.00
59103;BME280;43999;51.660;5.616;2023-03-04T04:23:20;102319.94;;;4.82;100.00
59103;BME280;43999;51.660;5.616;2023-03-04T04:25:48;102320.81;;;4.81;100.00
59103;BME280;43999;51.660;5.616;2023-03-04T04:28:22;102317.34;;;4.84;100.00
59103;BME280;43999;51.660;5.616;2023-03-04T04:30:50;102319.09;;;4.83;100.00
59103;BME280;43999;51.660;5.616;2023-03-04T04:33:18;102321.72;;;4.79;100.00
59103;BME280;43999;51.660;5.616;2023-03-04T04:35:45;102317.38;;;4.78;100.00
59103;BME280;43999;51.660;5.616;2023-03-04T04:38:15;102319.94;;;4.82;100.00
59103;BME280;43999;51.660;5.616;2023-03-04T04:40:42;102324.31;;;4.79;100.00
59103;BME280;43999;51.660;5.616;2023-03-04T04:43:11;102318.22;;;4.80;100.00
59103;BME280;43999;51.660;5.616;2023-03-04T04:45:38;102318.25;;;4.74;100.00
59103;BME280;43999;51.660;5.616;2023-03-04T04:48:06;102321.75;;;4.74;100.00
59103;BME280;43999;51.660;5.616;2023-03-04T04:50:35;102320.00;;;4.73;100.00
59103;BME280;43999;51.660;5.616;2023-03-04T04:53:03;102319.19;;;4.68;100.00
59103;BME280;43999;51.660;5.616;2023-03-04T04:55:33;102320.03;;;4.67;100.00
59103;BME280;43999;51.660;5.616;2023-03-04T04:58:00;102306.25;;;4.60;100.00
59103;BME280;43999;51.660;5.616;2023-03-04T05:00:27;102319.19;;;4.66;100.00
59103;BME280;43999;51.660;5.616;2023-03-04T05:02:55;102311.41;;;4.65;100.00
59103;BME280;43999;51.660;5.616;2023-03-04T05:05:22;102316.59;;;4.63;100.00
59103;BME280;43999;51.660;5.616;2023-03-04T05:07:49;102327.00;;;4.62;100.00
59103;BME280;43999;51.660;5.616;2023-03-04T05:10:16;102319.22;;;4.57;100.00
59103;BME280;43999;51.660;5.616;2023-03-04T05:12:43;102320.94;;;4.57;100.00
59103;BME280;43999;51.660;5.616;2023-03-04T05:15:11;102326.09;;;4.63;100.00
59103;BME280;43999;51.660;5.616;2023-03-04T05:17:38;102320.91;;;4.63;100.00
59103;BME280;43999;51.660;5.616;2023-03-04T05:20:06;102317.47;;;4.62;100.00
59103;BME280;43999;51.660;5.616;2023-03-04T05:22:34;102322.66;;;4.62;100.00
59103;BME280;43999;51.660;5.616;2023-03-04T05:25:02;102327.84;;;4.64;100.00
59103;BME280;43999;51.660;5.616;2023-03-04T05:27:31;102328.69;;;4.66;100.00
59103;BME280;43999;51.660;5.616;2023-03-04T05:29:59;102318.31;;;4.66;100.00
59103;BME280;43999;51.660;5.616;2023-03-04T05:32:27;102315.72;;;4.64;100.00
59103;BME280;43999;51.660;5.616;2023-03-04T05:34:55;102320.06;;;4.64;100.00
59103;BME280;43999;51.660;5.616;2023-03-04T05:37:22;102323.50;;;4.66;100.00
59103;BME280;43999;51.660;5.616;2023-03-04T05:39:49;102328.69;;;4.67;100.00
59103;BME280;43999;51.660;5.616;2023-03-04T05:42:17;102326.09;;;4.67;100.00
59103;BME280;43999;51.660;5.616;2023-03-04T05:44:44;102338.22;;;4.69;100.00
59103;BME280;43999;51.660;5.616;2023-03-04T05:47:11;102324.31;;;4.76;100.00
59103;BME280;43999;51.660;5.616;2023-03-04T05:49:38;102324.38;;;4.68;100.00
59103;BME280;43999;51.660;5.616;2023-03-04T05:52:07;102321.84;;;4.57;100.00
59103;BME280;43999;51.660;5.616;2023-03-04T05:54:37;102337.41;;;4.56;100.00
59103;BME280;43999;51.660;5.616;2023-03-04T05:57:04;102338.28;;;4.52;100.00
59103;BME280;43999;51.660;5.616;2023-03-04T05:59:35;102334.84;;;4.51;100.00
59103;BME280;43999;51.660;5.616;2023-03-04T06:02:03;102334.84;;;4.48;100.00
59103;BME280;43999;51.660;5.616;2023-03-04T06:04:43;102334.84;;;4.46;100.00
59103;BME280;43999;51.660;5.616;2023-03-04T06:07:10;102334.84;;;4.46;100.00
59103;BME280;43999;51.660;5.616;2023-03-04T06:09:37;102338.28;;;4.50;100.00
59103;BME280;43999;51.660;5.616;2023-03-04T06:12:05;102333.97;;;4.46;100.00
59103;BME280;43999;51.660;5.616;2023-03-04T06:14:39;102342.66;;;4.46;100.00
59103;BME280;43999;51.660;5.616;2023-03-04T06:17:08;102337.47;;;4.45;100.00
59103;BME280;43999;51.660;5.616;2023-03-04T06:19:36;102334.84;;;4.46;100.00
59103;BME280;43999;51.660;5.616;2023-03-04T06:22:08;102346.09;;;4.48;100.00
59103;BME280;43999;51.660;5.616;2023-03-04T06:24:37;102341.75;;;4.47;100.00
59103;BME280;43999;51.660;5.616;2023-03-04T06:27:10;102343.50;;;4.50;100.00
59103;BME280;43999;51.660;5.616;2023-03-04T06:29:40;102346.06;;;4.52;100.00
59103;BME280;43999;51.660;5.616;2023-03-04T06:32:07;102349.53;;;4.52;100.00
59103;BME280;43999;51.660;5.616;2023-03-04T06:34:35;102346.91;;;4.54;100.00
59103;BME280;43999;51.660;5.616;2023-03-04T06:37:03;102348.66;;;4.56;100.00
59103;BME280;43999;51.660;5.616;2023-03-04T06:39:30;102351.25;;;4.53;100.00
59103;BME280;43999;51.660;5.616;2023-03-04T06:41:59;102347.81;;;4.49;100.00
59103;BME280;43999;51.660;5.616;2023-03-04T06:44:27;102362.50;;;4.51;100.00
59103;BME280;43999;51.660;5.616;2023-03-04T06:46:54;102362.50;;;4.52;100.00
59103;BME280;43999;51.660;5.616;2023-03-04T06:49:22;102346.09;;;4.48;100.00
59103;BME280;43999;51.660;5.616;2023-03-04T06:51:51;102345.22;;;4.49;100.00
59103;BME280;43999;51.660;5.616;2023-03-04T06:54:20;102346.09;;;4.50;100.00
59103;BME280;43999;51.660;5.616;2023-03-04T06:56:54;102348.69;;;4.48;100.00
59103;BME280;43999;51.660;5.616;2023-03-04T06:59:22;102340.91;;;4.48;100.00
59103;BME280;43999;51.660;5.616;2023-03-04T07:01:49;102349.53;;;4.52;100.00
59103;BME280;43999;51.660;5.616;2023-03-04T07:04:16;102348.69;;;4.50;100.00
59103;BME280;43999;51.660;5.616;2023-03-04T07:06:44;102346.94;;;4.52;100.00
59103;BME280;43999;51.660;5.616;2023-03-04T07:09:11;102350.41;;;4.51;100.00
59103;BME280;43999;51.660;5.616;2023-03-04T07:11:39;102351.28;;;4.52;100.00
59103;BME280;43999;51.660;5.616;2023-03-04T07:14:06;102353.00;;;4.54;100.00
59103;BME280;43999;51.660;5.616;2023-03-04T07:16:34;102359.88;;;4.57;100.00
59103;BME280;43999;51.660;5.616;2023-03-04T07:19:03;102348.69;;;4.50;100.00
59103;BME280;43999;51.660;5.616;2023-03-04T07:21:30;102351.25;;;4.55;100.00
59103;BME280;43999;51.660;5.616;2023-03-04T07:23:58;102358.19;;;4.56;100.00
59103;BME280;43999;51.660;5.616;2023-03-04T07:26:25;102365.97;;;4.57;100.00
59103;BME280;43999;51.660;5.616;2023-03-04T07:28:52;102364.22;;;4.58;100.00
59103;BME280;43999;51.660;5.616;2023-03-04T07:31:26;102361.63;;;4.56;100.00
59103;BME280;43999;51.660;5.616;2023-03-04T07:34:01;102371.16;;;4.60;100.00
59103;BME280;43999;51.660;5.616;2023-03-04T07:36:32;102370.25;;;4.61;100.00
59103;BME280;43999;51.660;5.616;2023-03-04T07:39:03;102365.03;;;4.64;100.00
59103;BME280;43999;51.660;5.616;2023-03-04T07:41:30;102375.41;;;4.69;100.00
59103;BME280;43999;51.660;5.616;2023-03-04T07:43:59;102372.81;;;4.69;100.00
59103;BME280;43999;51.660;5.616;2023-03-04T07:46:26;102380.56;;;4.75;100.00
59103;BME280;43999;51.660;5.616;2023-03-04T07:48:55;102369.34;;;4.75;100.00
59103;BME280;43999;51.660;5.616;2023-03-04T07:51:24;102382.31;;;4.78;100.00
59103;BME280;43999;51.660;5.616;2023-03-04T07:53:55;102390.06;;;4.82;100.00
59103;BME280;43999;51.660;5.616;2023-03-04T07:56:31;102391.78;;;4.88;100.00
59103;BME280;43999;51.660;5.616;2023-03-04T07:59:04;102385.69;;;4.91;100.00
59103;BME280;43999;51.660;5.616;2023-03-04T08:01:40;102399.53;;;4.96;100.00
59103;BME280;43999;51.660;5.616;2023-03-04T08:04:07;102391.72;;;4.99;100.00
59103;BME280;43999;51.660;5.616;2023-03-04T08:06:40;102380.44;;;5.01;100.00
59103;BME280;43999;51.660;5.616;2023-03-04T08:09:09;102386.44;;;5.13;100.00
59103;BME280;43999;51.660;5.616;2023-03-04T08:11:37;102389.00;;;5.24;100.00
59103;BME280;43999;51.660;5.616;2023-03-04T08:14:06;102397.59;;;5.30;100.00
59103;BME280;43999;51.660;5.616;2023-03-04T08:16:36;102393.25;;;5.29;100.00
59103;BME280;43999;51.660;5.616;2023-03-04T08:19:04;102397.59;;;5.32;100.00
59103;BME280;43999;51.660;5.616;2023-03-04T08:21:32;102395.81;;;5.37;100.00
59103;BME280;43999;51.660;5.616;2023-03-04T08:24:00;102387.13;;;5.39;100.00
59103;BME280;43999;51.660;5.616;2023-03-04T08:26:34;102394.00;;;5.45;100.00
59103;BME280;43999;51.660;5.616;2023-03-04T08:29:03;102387.97;;;5.43;100.00
59103;BME280;43999;51.660;5.616;2023-03-04T08:31:33;102402.66;;;5.49;100.00
59103;BME280;43999;51.660;5.616;2023-03-04T08:34:02;102394.88;;;5.49;100.00
59103;BME280;43999;51.660;5.616;2023-03-04T08:36:30;102393.94;;;5.54;100.00
59103;BME280;43999;51.660;5.616;2023-03-04T08:39:15;102389.56;;;5.63;100.00
59103;BME280;43999;51.660;5.616;2023-03-04T08:41:48;102403.34;;;5.71;100.00
59103;BME280;43999;51.660;5.616;2023-03-04T08:44:15;102401.53;;;5.79;100.00
59103;BME280;43999;51.660;5.616;2023-03-04T08:46:44;102399.72;;;5.90;100.00
59103;BME280;43999;51.660;5.616;2023-03-04T08:49:15;102401.38;;;5.99;100.00
59103;BME280;43999;51.660;5.616;2023-03-04T08:51:43;102403.88;;;6.12;100.00
59103;BME280;43999;51.660;5.616;2023-03-04T08:54:15;102401.19;;;6.19;100.00
59103;BME280;43999;51.660;5.616;2023-03-04T08:56:51;102402.81;;;6.30;100.00
59103;BME280;43999;51.660;5.616;2023-03-04T08:59:23;102401.00;;;6.35;100.00
59103;BME280;43999;51.660;5.616;2023-03-04T09:02:13;102401.84;;;6.41;100.00
59103;BME280;43999;51.660;5.616;2023-03-04T09:04:46;102410.44;;;6.46;100.00
59103;BME280;43999;51.660;5.616;2023-03-04T09:07:18;102400.94;;;6.42;100.00
59103;BME280;43999;51.660;5.616;2023-03-04T09:09:45;102390.47;;;6.45;100.00
59103;BME280;43999;51.660;5.616;2023-03-04T09:12:19;102391.28;;;6.52;100.00
59103;BME280;43999;51.660;5.616;2023-03-04T09:14:52;102386.91;;;6.56;100.00
59103;BME280;43999;51.660;5.616;2023-03-04T09:17:37;102395.53;;;6.59;100.00
59103;BME280;43999;51.660;5.616;2023-03-04T09:20:06;102384.13;;;6.68;100.00
59103;BME280;43999;51.660;5.616;2023-03-04T09:22:40;102375.31;;;6.77;100.00
59103;BME280;43999;51.660;5.616;2023-03-04T09:25:12;102370.00;;;6.85;100.00
59103;BME280;43999;51.660;5.616;2023-03-04T09:27:44;102375.13;;;6.92;100.00
59103;BME280;43999;51.660;5.616;2023-03-04T09:30:17;102375.91;;;6.99;100.00
59103;BME280;43999;51.660;5.616;2023-03-04T09:32:46;102375.81;;;7.07;100.00
59103;BME280;43999;51.660;5.616;2023-03-04T09:35:15;102366.19;;;7.10;100.00
59103;BME280;43999;51.660;5.616;2023-03-04T09:37:44;102372.09;;;7.22;100.00
59103;BME280;43999;51.660;5.616;2023-03-04T09:40:18;102372.00;;;7.28;100.00
59103;BME280;43999;51.660;5.616;2023-03-04T09:42:53;102365.84;;;7.32;100.00
59103;BME280;43999;51.660;5.616;2023-03-04T09:45:40;102376.16;;;7.40;100.00
59103;BME280;43999;51.660;5.616;2023-03-04T09:48:26;102370.06;;;7.41;100.00
59103;BME280;43999;51.660;5.616;2023-03-04T09:56:37;102365.97;;;7.24;100.00
59103;BME280;43999;51.660;5.616;2023-03-04T09:59:29;102370.44;;;7.16;100.00
59103;BME280;43999;51.660;5.616;2023-03-04T10:02:12;102368.72;;;7.15;100.00
59103;BME280;43999;51.660;5.616;2023-03-04T10:04:59;102369.59;;;7.14;100.00
59103;BME280;43999;51.660;5.616;2023-03-04T10:07:35;102368.00;;;7.05;100.00
59103;BME280;43999;51.660;5.616;2023-03-04T10:10:09;102362.78;;;7.05;100.00
59103;BME280;43999;51.660;5.616;2023-03-04T10:12:42;102368.78;;;7.10;100.00
59103;BME280;43999;51.660;5.616;2023-03-04T10:15:26;102366.97;;;7.15;100.00
59103;BME280;43999;51.660;5.616;2023-03-04T10:18:20;102364.41;;;7.12;100.00
59103;BME280;43999;51.660;5.616;2023-03-04T10:21:13;102368.03;;;7.04;100.00
59103;BME280;43999;51.660;5.616;2023-03-04T10:23:42;102365.50;;;6.97;100.00
59103;BME280;43999;51.660;5.616;2023-03-04T10:26:15;102360.38;;;6.91;100.00
59103;BME280;43999;51.660;5.616;2023-03-04T10:28:44;102354.41;;;6.81;100.00
59103;BME280;43999;51.660;5.616;2023-03-04T10:31:16;102375.34;;;6.75;100.00
59103;BME280;43999;51.660;5.616;2023-03-04T10:33:45;102376.25;;;6.73;100.00
59103;BME280;43999;51.660;5.616;2023-03-04T10:39:06;102371.88;;;6.76;100.00
59103;BME280;43999;51.660;5.616;2023-03-04T10:41:40;102366.44;;;6.92;100.00
59103;BME280;43999;51.660;5.616;2023-03-04T10:46:47;102357.09;;;7.38;100.00
59103;BME280;43999;51.660;5.616;2023-03-04T10:49:19;102354.09;;;7.61;100.00
59103;BME280;43999;51.660;5.616;2023-03-04T10:52:00;102352.97;;;7.74;100.00
59103;BME280;43999;51.660;5.616;2023-03-04T10:57:04;102346.06;;;7.73;100.00
59103;BME280;43999;51.660;5.616;2023-03-04T11:02:35;102347.75;;;7.74;100.00
59103;BME280;43999;51.660;5.616;2023-03-04T11:07:44;102339.75;;;7.83;100.00
59103;BME280;43999;51.660;5.616;2023-03-04T11:10:27;102329.25;;;7.86;100.00
59103;BME280;43999;51.660;5.616;2023-03-04T11:18:42;102324.47;;;8.08;100.00
59103;BME280;43999;51.660;5.616;2023-03-04T11:21:24;102312.44;;;8.47;100.00
59103;BME280;43999;51.660;5.616;2023-03-04T11:24:10;102316.41;;;8.65;100.00
59103;BME280;43999;51.660;5.616;2023-03-04T11:27:04;102306.69;;;8.71;100.00
59103;BME280;43999;51.660;5.616;2023-03-04T11:29:59;102309.75;;;8.89;100.00
59103;BME280;43999;51.660;5.616;2023-03-04T11:32:35;102304.00;;;9.10;100.00
59103;BME280;43999;51.660;5.616;2023-03-04T11:40:32;102302.50;;;9.02;100.00
59103;BME280;43999;51.660;5.616;2023-03-04T11:56:58;102286.28;;;8.86;100.00
59103;BME280;43999;51.660;5.616;2023-03-04T12:02:27;102274.22;;;8.82;100.00
59103;BME280;43999;51.660;5.616;2023-03-04T12:08:59;102264.22;;;8.61;100.00
59103;BME280;43999;51.660;5.616;2023-03-04T12:20:43;102253.34;;;8.39;100.00
59103;BME280;43999;51.660;5.616;2023-03-04T12:22:55;102246.63;;;8.29;100.00
59103;BME280;43999;51.660;5.616;2023-03-04T12:32:02;102245.72;;;8.30;100.00
59103;BME280;43999;51.660;5.616;2023-03-04T12:55:47;102223.81;;;7.97;100.00
59103;BME280;43999;51.660;5.616;2023-03-04T12:58:28;102222.19;;;7.89;100.00
59103;BME280;43999;51.660;5.616;2023-03-04T13:01:28;102219.88;;;7.76;100.00
59103;BME280;43999;51.660;5.616;2023-03-04T13:09:57;102217.94;;;7.40;100.00
59103;BME280;43999;51.660;5.616;2023-03-04T13:12:49;102216.41;;;7.30;100.00
59103;BME280;43999;51.660;5.616;2023-03-04T13:17:56;102207.91;;;7.17;100.00
59103;BME280;43999;51.660;5.616;2023-03-04T13:20:37;102211.50;;;7.11;100.00
59103;BME280;43999;51.660;5.616;2023-03-04T13:23:36;102202.91;;;7.05;100.00
59103;BME280;43999;51.660;5.616;2023-03-04T13:29:35;102200.19;;;7.11;100.00
59103;BME280;43999;51.660;5.616;2023-03-04T13:32:09;102194.09;;;7.13;100.00
59103;BME280;43999;51.660;5.616;2023-03-04T13:34:56;102187.00;;;7.20;100.00
59103;BME280;43999;51.660;5.616;2023-03-04T13:37:33;102188.59;;;7.29;100.00
59103;BME280;43999;51.660;5.616;2023-03-04T13:43:27;102175.34;;;7.83;100.00
59103;BME280;43999;51.660;5.616;2023-03-04T13:51:45;102171.41;;;8.45;100.00
59103;BME280;43999;51.660;5.616;2023-03-04T13:54:29;102161.91;;;8.39;100.00
59103;BME280;43999;51.660;5.616;2023-03-04T14:02:01;102164.75;;;8.30;100.00
59103;BME280;43999;51.660;5.616;2023-03-04T14:04:40;102174.47;;;8.23;100.00
59103;BME280;43999;51.660;5.616;2023-03-04T14:07:28;102166.94;;;8.11;100.00
59103;BME280;43999;51.660;5.616;2023-03-04T14:10:07;102172.47;;;7.96;100.00
59103;BME280;43999;51.660;5.616;2023-03-04T14:12:53;102168.31;;;7.88;100.00
59103;BME280;43999;51.660;5.616;2023-03-04T14:15:26;102156.34;;;7.78;100.00
59103;BME280;43999;51.660;5.616;2023-03-04T14:18:03;102158.22;;;7.71;100.00
59103;BME280;43999;51.660;5.616;2023-03-04T14:20:36;102162.63;;;7.68;100.00
59103;BME280;43999;51.660;5.616;2023-03-04T14:23:24;102157.41;;;7.68;100.00
59103;BME280;43999;51.660;5.616;2023-03-04T14:26:05;102158.28;;;7.68;100.00
59103;BME280;43999;51.660;5.616;2023-03-04T14:28:40;102155.69;;;7.68;100.00
59103;BME280;43999;51.660;5.616;2023-03-04T14:31:18;102146.91;;;7.71;100.00
59103;BME280;43999;51.660;5.616;2023-03-04T14:33:48;102155.56;;;7.73;100.00
59103;BME280;43999;51.660;5.616;2023-03-04T14:36:21;102152.88;;;7.78;100.00
59103;BME280;43999;51.660;5.616;2023-03-04T14:38:57;102146.69;;;7.82;100.00
59103;BME280;43999;51.660;5.616;2023-03-04T14:41:35;102144.78;;;7.90;100.00
59103;BME280;43999;51.660;5.616;2023-03-04T14:44:48;102141.06;;;8.00;100.00
59103;BME280;43999;51.660;5.616;2023-03-04T14:47:33;102136.41;;;8.13;100.00
59103;BME280;43999;51.660;5.616;2023-03-04T14:50:16;102128.13;;;8.33;100.00
59103;BME280;43999;51.660;5.616;2023-03-04T14:55:36;102134.09;;;8.38;100.00
59103;BME280;43999;51.660;5.616;2023-03-04T15:04:10;102138.25;;;8.10;100.00
59103;BME280;43999;51.660;5.616;2023-03-04T15:06:50;102142.03;;;7.95;100.00
59103;BME280;43999;51.660;5.616;2023-03-04T15:09:23;102133.69;;;7.79;100.00
59103;BME280;43999;51.660;5.616;2023-03-04T15:12:01;102141.75;;;7.68;100.00
59103;BME280;43999;51.660;5.616;2023-03-04T15:14:50;102137.41;;;7.68;100.00
59103;BME280;43999;51.660;5.616;2023-03-04T15:17:35;102140.13;;;7.64;100.00
59103;BME280;43999;51.660;5.616;2023-03-04T15:20:30;102135.03;;;7.58;100.00
59103;BME280;43999;51.660;5.616;2023-03-04T15:23:10;102134.41;;;7.43;100.00
59103;BME280;43999;51.660;5.616;2023-03-04T15:25:53;102125.94;;;7.33;100.00
59103;BME280;43999;51.660;5.616;2023-03-04T15:28:29;102124.28;;;7.28;100.00